Aurora, CO (80044)

8:51 AM MDT on July 30, 2016 (GMT -0600)
Murray Johnston | | Change Station

Elev 5420 ft 39.75 °N, 104.82 °W | Updated 5 minutes ago

Partly Cloudy
Partly Cloudy
69.1 °F
Feels Like 69.1 °F
N
4.7
Wind Variable Wind from NE

Today
High -- | Low -- °F
--% Chance of Precip.
Yesterday
High -- | Low -- °F
Precip. -- in
Pressure 29.84 in
Visibility 10.0 miles
Clouds Few 11000 ft
Few 22000 ft
Dew Point 61 °F
Humidity 75%
Rainfall 0.00 in
Snow Depth Not available.
5:56 AM 8:13 PM
Waning Crescent, 13% visible
METAR KBKF 301358Z 31007KT 10SM FEW110 FEW220 21/14 A3007 RMK AO2A SLP103 T02080142
Pressure 29.84 in
Visibility 10.0 miles
Clouds Few 11000 ft
Few 22000 ft
Dew Point 61 °F
Humidity 75%
Rainfall 0.00 in
Snow Depth Not available.
5:56 AM 8:13 PM
Waning Crescent, 13% visible
METAR KBKF 301358Z 31007KT 10SM FEW110 FEW220 21/14 A3007 RMK AO2A SLP103 T02080142

10-Day Weather Forecast

Almanac

Astronomy

Jul. 30, 2016 Rise Set
Actual Time
Civil Twilight
Nautical Twilight
Astronomical Twilight
Moon
Length of Visible Light
Length of Day
Tomorrow will be .
, % of the Moon is Illuminated

Today's Extremes

State Highs State Lows

Community

WunderPhotos

Upload Photos

1,928,565 photos uploaded!

WunderBlog® & News

Nearby

Air Quality

  Air Quality AQ Index Pollutant
Not available.

Snow Depth

Station Depth Elevation

Earthquake Activity

City Distance Mag. Time & Date
Minimum magnitude displayed is 2.5.

Coastal Water Temperatures

Place Temperature

Stations

Nearby Weather Stations

Station Location Temp. Windchill Dew Point Humidity Wind Precip. Elev Updated Type
                   

Watches & Warnings

There are currently no watches in effect.